createdAt,value
2019-05-02T00:01:54.048Z,52.13
2019-05-02T00:04:22.552Z,51.57
2019-05-02T00:07:07.998Z,47.10
2019-05-02T00:09:37.601Z,53.03
2019-05-02T00:12:09.643Z,57.77
2019-05-02T00:14:38.548Z,58.57
2019-05-02T00:17:07.798Z,54.17
2019-05-02T00:19:36.277Z,60.20
2019-05-02T00:22:07.441Z,54.40
2019-05-02T00:24:39.249Z,54.27
2019-05-02T00:27:07.190Z,57.13
2019-05-02T00:29:36.261Z,46.43
2019-05-02T00:32:05.478Z,48.20
2019-05-02T00:34:34.029Z,48.30
2019-05-02T00:37:02.711Z,48.80
2019-05-02T00:39:31.183Z,45.80
2019-05-02T00:42:12.070Z,48.10
2019-05-02T00:44:29.933Z,51.43
2019-05-02T00:46:59.992Z,49.80
2019-05-02T00:49:30.773Z,49.67
2019-05-02T00:52:01.349Z,44.70
2019-05-02T00:54:28.711Z,45.87
2019-05-02T00:56:57.121Z,43.50
2019-05-02T00:59:25.561Z,46.87
2019-05-02T01:02:11.831Z,50.37
2019-05-02T01:04:41.890Z,42.93
2019-05-02T01:07:11.069Z,49.57
2019-05-02T01:09:42.285Z,51.47
2019-05-02T01:12:09.999Z,57.00
2019-05-02T01:14:38.513Z,47.40
2019-05-02T01:17:06.918Z,48.53
2019-05-02T01:19:35.336Z,50.87
2019-05-02T01:22:03.924Z,50.90
2019-05-02T01:24:34.254Z,53.77
2019-05-02T01:27:09.805Z,44.80
2019-05-02T01:29:42.645Z,45.43
2019-05-02T01:32:12.695Z,44.77
2019-05-02T01:34:54.477Z,52.03
2019-05-02T01:37:29.637Z,45.70
2019-05-02T01:39:58.059Z,46.63
2019-05-02T01:42:39.072Z,47.77
2019-05-02T01:44:56.634Z,46.70
2019-05-02T01:47:29.127Z,44.27
2019-05-02T01:49:57.237Z,44.07
2019-05-02T01:52:25.375Z,45.73
2019-05-02T01:54:53.799Z,43.77
2019-05-02T01:57:22.219Z,45.37
2019-05-02T01:59:50.700Z,43.17
2019-05-02T02:02:19.391Z,44.57
2019-05-02T02:04:52.083Z,45.27
2019-05-02T02:07:19.937Z,48.33
2019-05-02T02:09:48.136Z,47.83
2019-05-02T02:12:16.611Z,44.73
2019-05-02T02:14:48.068Z,46.47
2019-05-02T02:17:17.161Z,44.43
2019-05-02T02:19:49.680Z,46.17
2019-05-02T02:22:19.822Z,48.23
2019-05-02T02:24:49.971Z,50.67
2019-05-02T02:27:19.982Z,47.37
2019-05-02T02:29:48.539Z,40.33
2019-05-02T02:32:20.304Z,45.40
2019-05-02T02:34:47.116Z,48.50
2019-05-02T02:37:15.553Z,45.83
2019-05-02T02:39:48.412Z,45.17
2019-05-02T02:42:14.249Z,38.17
2019-05-02T02:44:44.290Z,39.70
2019-05-02T02:47:18.830Z,40.20
2019-05-02T02:49:42.919Z,46.63
2019-05-02T02:52:11.317Z,39.47
2019-05-02T02:54:43.441Z,42.40
2019-05-02T02:57:21.907Z,44.33
2019-05-02T02:59:40.076Z,46.53
2019-05-02T03:02:09.875Z,45.27
2019-05-02T03:04:43.931Z,41.23
2019-05-02T03:07:09.032Z,43.20
2019-05-02T03:09:37.587Z,51.23
2019-05-02T03:12:22.954Z,39.83
2019-05-02T03:14:56.103Z,45.30
2019-05-02T03:17:26.687Z,45.23
2019-05-02T03:20:01.595Z,44.20
2019-05-02T03:22:25.095Z,46.10
2019-05-02T03:24:53.609Z,45.70
2019-05-02T03:27:22.075Z,46.80
2019-05-02T03:29:50.555Z,46.30
2019-05-02T03:32:31.935Z,47.30
2019-05-02T03:34:53.282Z,48.03
2019-05-02T03:37:19.659Z,50.27
2019-05-02T03:39:56.533Z,54.07
2019-05-02T03:42:18.729Z,50.93
2019-05-02T03:44:54.615Z,54.80
2019-05-02T03:47:17.558Z,52.67
2019-05-02T03:49:48.510Z,49.53
2019-05-02T03:52:16.230Z,55.60
2019-05-02T03:54:50.255Z,57.10
2019-05-02T03:57:15.361Z,47.37
2019-05-02T03:59:43.922Z,51.83
2019-05-02T04:02:14.062Z,64.00
2019-05-02T04:04:43.834Z,55.73
2019-05-02T04:07:12.826Z,48.90
2019-05-02T04:09:42.516Z,48.87
2019-05-02T04:12:17.714Z,54.07
2019-05-02T04:14:42.484Z,56.17
2019-05-02T04:17:11.439Z,55.73
2019-05-02T04:19:40.736Z,55.80
2019-05-02T04:22:12.155Z,54.50
2019-05-02T04:24:40.795Z,62.30
2019-05-02T04:27:09.965Z,67.90
2019-05-02T04:29:38.809Z,58.33
2019-05-02T04:32:11.557Z,62.10
2019-05-02T04:34:37.606Z,61.93
2019-05-02T04:37:06.014Z,67.50
2019-05-02T04:39:34.437Z,59.57
2019-05-02T04:42:05.561Z,58.30
2019-05-02T04:44:44.170Z,57.00
2019-05-02T04:47:14.019Z,57.90
2019-05-02T04:49:35.946Z,54.27
2019-05-02T04:52:10.386Z,53.63
2019-05-02T04:54:34.103Z,60.87
2019-05-02T04:57:02.834Z,60.60
2019-05-02T04:59:33.282Z,61.87
2019-05-02T05:02:01.745Z,64.17
2019-05-02T05:04:33.216Z,73.47
2019-05-02T05:07:01.114Z,69.13
2019-05-02T05:09:29.960Z,73.40
2019-05-02T05:12:02.452Z,72.37
2019-05-02T05:14:31.439Z,74.73
2019-05-02T05:16:58.724Z,69.67
2019-05-02T05:19:31.033Z,70.73
2019-05-02T05:22:04.538Z,83.93
2019-05-02T05:24:32.730Z,72.77
2019-05-02T05:27:02.349Z,75.60
2019-05-02T05:29:30.798Z,62.27
2019-05-02T05:32:05.251Z,68.77
2019-05-02T05:34:32.668Z,78.90
2019-05-02T05:37:03.685Z,80.33
2019-05-02T05:39:29.665Z,83.63
2019-05-02T05:41:58.208Z,83.60
2019-05-02T05:44:30.539Z,80.20
2019-05-02T05:46:58.148Z,78.03
2019-05-02T05:49:28.293Z,84.37
2019-05-02T05:52:02.243Z,82.50
2019-05-02T05:54:28.313Z,85.80
2019-05-02T05:56:57.322Z,83.90
2019-05-02T05:59:28.193Z,89.57
2019-05-02T06:01:57.944Z,92.60
2019-05-02T06:04:32.680Z,94.90
2019-05-02T06:06:59.430Z,90.53
2019-05-02T06:09:31.111Z,84.50
2019-05-02T06:11:57.017Z,88.90
2019-05-02T06:14:26.349Z,89.33
2019-05-02T06:16:55.005Z,85.53
2019-05-02T06:19:23.483Z,88.23
2019-05-02T06:21:51.918Z,92.80
2019-05-02T06:24:20.335Z,93.73
2019-05-02T06:26:51.744Z,97.33
2019-05-02T06:29:21.091Z,95.70
2019-05-02T06:31:49.693Z,87.73
2019-05-02T06:34:21.029Z,96.63
2019-05-02T06:36:52.449Z,96.90
2019-05-02T06:39:22.457Z,92.70
2019-05-02T06:41:51.970Z,106.63
2019-05-02T06:44:24.051Z,97.97
2019-05-02T06:46:51.354Z,98.23
2019-05-02T06:49:24.209Z,104.70
2019-05-02T06:51:56.391Z,100.10
2019-05-02T06:54:22.897Z,108.40
2019-05-02T06:56:51.909Z,111.10
2019-05-02T06:59:20.395Z,110.60
2019-05-02T07:01:52.453Z,97.70
2019-05-02T07:04:22.875Z,98.90
2019-05-02T07:06:58.086Z,92.57
2019-05-02T07:09:19.580Z,100.20
2019-05-02T07:11:56.959Z,91.60
2019-05-02T07:14:18.675Z,96.23
2019-05-02T07:16:54.488Z,87.03
2019-05-02T07:19:27.525Z,85.70
2019-05-02T07:21:58.410Z,82.97
2019-05-02T07:24:25.297Z,82.33
2019-05-02T07:26:56.932Z,77.97
2019-05-02T07:29:25.567Z,72.47
2019-05-02T07:31:53.960Z,72.13
2019-05-02T07:34:22.413Z,72.33
2019-05-02T07:36:50.896Z,79.27
2019-05-02T07:39:19.419Z,74.47
2019-05-02T07:41:48.377Z,64.53
2019-05-02T07:44:16.990Z,69.00
2019-05-02T07:46:52.097Z,77.67
2019-05-02T07:49:15.730Z,74.03
2019-05-02T07:51:44.180Z,69.10
2019-05-02T07:54:12.589Z,72.40
2019-05-02T07:56:41.192Z,74.13
2019-05-02T07:59:09.589Z,73.77
2019-05-02T08:01:38.104Z,78.00
2019-05-02T08:04:11.336Z,79.60
2019-05-02T08:06:40.179Z,79.37
2019-05-02T08:09:09.401Z,94.50
2019-05-02T08:11:38.551Z,86.67
2019-05-02T08:14:07.175Z,82.83
2019-05-02T08:16:35.830Z,81.10
2019-05-02T08:19:05.519Z,82.67
2019-05-02T08:21:34.698Z,80.73
2019-05-02T08:24:03.704Z,86.80
2019-05-02T08:26:46.032Z,84.67
2019-05-02T08:29:14.910Z,106.73
2019-05-02T08:31:43.343Z,106.33
2019-05-02T08:34:15.056Z,114.03
2019-05-02T08:36:42.004Z,117.33
2019-05-02T08:39:10.587Z,114.23
2019-05-02T08:41:39.007Z,116.47
2019-05-02T08:44:07.485Z,112.00
2019-05-02T08:46:35.909Z,118.77
2019-05-02T08:49:04.474Z,114.17
2019-05-02T08:51:32.902Z,114.07
2019-05-02T08:54:01.385Z,110.53
2019-05-02T08:56:29.876Z,117.53
2019-05-02T08:58:58.298Z,111.17
2019-05-02T09:01:34.943Z,107.90
2019-05-02T09:03:57.168Z,105.53
2019-05-02T09:06:25.509Z,113.57
2019-05-02T09:08:53.949Z,109.30
2019-05-02T09:11:22.430Z,110.57
2019-05-02T09:13:52.623Z,109.50
2019-05-02T09:49:22.262Z,114.63
2019-05-02T09:51:59.383Z,117.73
2019-05-02T09:54:22.824Z,106.70
2019-05-02T09:56:52.350Z,123.00
2019-05-02T09:59:27.684Z,113.50
2019-05-02T10:01:53.003Z,101.77
2019-05-02T10:04:22.447Z,105.20
2019-05-02T10:06:52.481Z,105.07
2019-05-02T10:09:25.156Z,96.47
2019-05-02T10:11:52.547Z,93.40
2019-05-02T10:14:22.596Z,93.13
2019-05-02T10:16:52.958Z,94.80
2019-05-02T11:01:36.455Z,98.10
2019-05-02T11:04:09.973Z,107.20
2019-05-02T11:32:34.944Z,99.23
